Time;durP1;ratioP1;P1;durP2;ratioP2;P2;SDS_P1;SDS_P2;PMS_P1;PMS_P2;Temp;Humidity;BMP_temperature;BMP_pressure;BME280_temperature;BME280_humidity;BME280_pressure;Samples;Min_cycle;Max_cycle;Signal;HPM_P1;HPM_P2
2022/08/06 00:00:21;;;;;;;0.30;0.10;;;23.70;60.40;;;;;;4982229;28;20066;-42
2022/08/06 00:02:47;;;;;;;0.30;0.20;;;23.70;60.60;;;;;;4990564;28;20053;-44
2022/08/06 00:05:13;;;;;;;0.30;0.20;;;23.70;60.40;;;;;;4983799;28;20411;-42
2022/08/06 00:07:38;;;;;;;0.22;0.20;;;23.70;60.40;;;;;;4986305;28;20074;-44
2022/08/06 00:10:04;;;;;;;0.17;0.10;;;23.70;60.50;;;;;;4985294;28;20533;-43
2022/08/06 00:12:30;;;;;;;0.20;0.20;;;23.70;60.50;;;;;;4984144;28;20046;-42
2022/08/06 00:14:57;;;;;;;0.30;0.25;;;23.70;60.60;;;;;;4983726;28;20054;-42
2022/08/06 00:17:23;;;;;;;0.20;0.15;;;23.70;61.40;;;;;;4985207;28;20085;-46
2022/08/06 00:19:48;;;;;;;0.20;0.10;;;23.70;60.70;;;;;;4984280;28;20108;-42
2022/08/06 00:22:14;;;;;;;0.22;0.17;;;23.70;60.70;;;;;;4984652;28;20042;-43
2022/08/06 00:24:39;;;;;;;0.13;0.13;;;23.60;60.70;;;;;;4985411;28;20422;-44
2022/08/06 00:27:05;;;;;;;0.13;0.10;;;23.60;60.70;;;;;;4985821;28;20053;-44
2022/08/06 00:29:31;;;;;;;0.10;0.10;;;23.60;60.70;;;;;;4984281;28;20061;-42
2022/08/06 00:31:56;;;;;;;0.10;0.10;;;23.70;60.70;;;;;;4989949;28;20467;-42
2022/08/06 00:34:22;;;;;;;0.30;0.15;;;23.60;60.80;;;;;;4989176;28;20050;-42
2022/08/06 00:36:47;;;;;;;0.32;0.20;;;23.70;60.70;;;;;;4988230;28;20057;-43
2022/08/06 00:39:13;;;;;;;0.10;0.10;;;23.70;60.70;;;;;;4985414;28;20133;-42
2022/08/06 00:41:38;;;;;;;0.13;0.10;;;23.70;60.80;;;;;;4988897;28;20057;-42
2022/08/06 00:44:04;;;;;;;1.67;0.20;;;23.70;60.80;;;;;;4988919;28;20049;-44
2022/08/06 00:46:30;;;;;;;0.10;0.10;;;23.60;60.90;;;;;;4989846;28;20054;-42
2022/08/06 00:48:55;;;;;;;0.20;0.10;;;23.60;61.00;;;;;;4988252;28;20065;-43
2022/08/06 00:51:21;;;;;;;2.08;0.10;;;23.70;60.90;;;;;;4985460;28;20218;-41
2022/08/06 00:53:47;;;;;;;0.40;0.30;;;23.60;60.90;;;;;;4989083;28;20071;-43
2022/08/06 00:56:13;;;;;;;1.08;0.35;;;23.60;61.00;;;;;;4988267;28;20050;-42
2022/08/06 00:58:38;;;;;;;0.10;0.10;;;23.60;61.00;;;;;;4990906;28;20491;-43
2022/08/06 01:01:04;;;;;;;1.27;0.10;;;23.70;61.00;;;;;;4986039;28;20050;-43
2022/08/06 01:03:30;;;;;;;0.22;0.22;;;23.60;61.00;;;;;;4988470;28;20027;-42
2022/08/06 01:05:55;;;;;;;0.03;0.03;;;23.60;61.00;;;;;;4986204;28;20034;-43
2022/08/06 01:08:21;;;;;;;0.20;0.10;;;23.60;60.90;;;;;;4987296;28;20039;-42
2022/08/06 01:10:46;;;;;;;0.32;0.17;;;23.60;60.90;;;;;;4987243;28;20065;-41
2022/08/06 01:13:12;;;;;;;0.08;0.05;;;23.70;61.00;;;;;;4987990;28;20053;-41
2022/08/06 01:15:38;;;;;;;0.00;0.00;;;23.60;60.90;;;;;;4987041;28;20042;-43
2022/08/06 01:18:09;;;;;;;0.10;0.10;;;23.60;61.10;;;;;;5016882;28;20081;-42
2022/08/06 01:20:52;;;;;;;0.20;0.15;;;23.60;61.20;;;;;;4987436;28;20062;-43
2022/08/06 01:23:35;;;;;;;0.17;0.15;;;23.60;61.20;;;;;;5017890;28;20389;-43
2022/08/06 01:26:32;;;;;;;0.10;0.10;;;23.60;61.00;;;;;;4987998;28;20044;-42
2022/08/06 01:29:02;;;;;;;0.10;0.08;;;23.60;61.20;;;;;;4986428;28;20671;-42
2022/08/06 01:31:33;;;;;;;0.10;0.10;;;23.60;61.40;;;;;;4986069;28;20042;-42
2022/08/06 01:34:00;;;;;;;0.10;0.10;;;23.60;61.20;;;;;;4987192;28;20034;-44
2022/08/06 01:36:44;;;;;;;0.10;0.10;;;23.50;61.20;;;;;;4984729;28;20121;-43
2022/08/06 01:39:10;;;;;;;0.13;0.10;;;23.50;61.10;;;;;;5016553;28;20027;-42
2022/08/06 01:41:41;;;;;;;0.32;0.10;;;23.60;61.00;;;;;;4989538;28;20288;-43
2022/08/06 01:44:09;;;;;;;0.10;0.10;;;23.50;61.20;;;;;;5001530;28;20026;-42
2022/08/06 01:46:52;;;;;;;0.13;0.13;;;23.60;61.10;;;;;;4986835;28;20031;-41
2022/08/06 01:49:20;;;;;;;0.10;0.10;;;23.60;61.10;;;;;;4988340;28;20034;-41
2022/08/06 01:51:46;;;;;;;0.13;0.10;;;23.60;61.00;;;;;;4986036;28;20038;-41
2022/08/06 01:54:11;;;;;;;0.32;0.20;;;23.50;61.10;;;;;;4984110;28;20034;-35
2022/08/06 01:56:39;;;;;;;0.25;0.10;;;23.50;61.10;;;;;;4985372;28;20522;-41
2022/08/06 01:59:05;;;;;;;0.10;0.10;;;23.50;61.20;;;;;;5001716;28;20474;-44
2022/08/06 02:01:31;;;;;;;0.20;0.10;;;23.50;61.30;;;;;;4987820;28;20804;-43
2022/08/06 02:03:56;;;;;;;0.30;0.10;;;23.50;61.10;;;;;;4986132;28;20134;-41
2022/08/06 02:06:25;;;;;;;0.03;0.03;;;23.50;61.20;;;;;;5016384;28;20081;-41
2022/08/06 02:08:51;;;;;;;1.45;0.17;;;23.50;61.10;;;;;;4985405;28;20034;-43
2022/08/06 02:11:16;;;;;;;0.30;0.10;;;23.50;61.10;;;;;;5013464;28;20085;-41
2022/08/06 02:13:42;;;;;;;0.10;0.10;;;23.50;61.20;;;;;;4984993;28;20062;-43
2022/08/06 02:16:09;;;;;;;0.05;0.00;;;23.50;61.20;;;;;;5017161;28;20429;-41
2022/08/06 02:18:37;;;;;;;0.10;0.10;;;23.50;61.30;;;;;;5016332;28;20100;-24
2022/08/06 02:21:06;;;;;;;0.10;0.10;;;23.40;61.20;;;;;;4998372;28;20058;-21
2022/08/06 02:23:32;;;;;;;0.10;0.10;;;23.40;61.30;;;;;;4983672;28;20070;-19
2022/08/06 02:25:57;;;;;;;0.00;0.00;;;23.50;61.30;;;;;;4986112;28;20092;-19
2022/08/06 02:28:23;;;;;;;0.20;0.05;;;23.50;61.30;;;;;;4985300;28;20089;-20
2022/08/06 02:30:50;;;;;;;1.40;0.20;;;23.50;61.30;;;;;;5015916;28;20535;-23
2022/08/06 02:33:16;;;;;;;0.10;0.10;;;23.50;61.20;;;;;;5014223;28;20054;-20
2022/08/06 02:36:13;;;;;;;0.17;0.17;;;23.50;61.30;;;;;;5016005;28;20543;-19
2022/08/06 02:38:48;;;;;;;0.17;0.17;;;23.50;61.30;;;;;;4983330;28;20060;-20
2022/08/06 02:41:20;;;;;;;0.22;0.15;;;23.50;61.30;;;;;;4985959;28;20049;-20
2022/08/06 02:43:58;;;;;;;0.20;0.20;;;23.50;61.30;;;;;;4986975;28;20129;-20
2022/08/06 02:46:27;;;;;;;0.00;0.00;;;23.50;61.40;;;;;;5017551;28;20134;-20
2022/08/06 02:48:57;;;;;;;0.10;0.10;;;23.40;61.40;;;;;;4983656;28;20553;-20
2022/08/06 02:51:33;;;;;;;0.43;0.10;;;23.40;61.40;;;;;;4983471;28;20515;-19
2022/08/06 02:54:06;;;;;;;0.00;0.00;;;23.40;61.30;;;;;;4998458;28;20062;-22
2022/08/06 02:56:32;;;;;;;0.10;0.08;;;23.50;61.30;;;;;;4985199;28;20069;-22
2022/08/06 02:58:58;;;;;;;0.17;0.10;;;23.40;61.30;;;;;;5000038;28;20228;-20
2022/08/06 03:01:27;;;;;;;0.10;0.10;;;23.40;61.40;;;;;;4997536;28;20539;-20
2022/08/06 03:03:53;;;;;;;0.20;0.10;;;23.40;61.40;;;;;;4982221;28;20049;-27
2022/08/06 03:06:19;;;;;;;0.10;0.10;;;23.50;61.30;;;;;;4997228;28;20496;-21
2022/08/06 03:08:45;;;;;;;0.20;0.10;;;23.40;61.30;;;;;;4983412;28;20403;-20
2022/08/06 03:11:11;;;;;;;0.00;0.00;;;23.40;61.50;;;;;;5010595;28;20500;-18
2022/08/06 03:13:38;;;;;;;1.27;0.10;;;23.40;61.40;;;;;;4984513;28;20138;-21
2022/08/06 03:16:04;;;;;;;0.10;0.10;;;23.50;61.30;;;;;;4985629;28;20082;-23
2022/08/06 03:18:30;;;;;;;0.52;0.10;;;23.40;61.30;;;;;;4998277;28;20152;-19
2022/08/06 03:20:55;;;;;;;0.10;0.03;;;23.40;61.20;;;;;;5000985;28;20555;-22
2022/08/06 03:23:21;;;;;;;0.15;0.08;;;23.40;61.30;;;;;;4983642;28;20102;-19
2022/08/06 03:25:46;;;;;;;0.13;0.10;;;23.40;61.50;;;;;;5017003;28;20566;-19
2022/08/06 03:28:12;;;;;;;0.10;0.10;;;23.40;61.70;;;;;;4983766;28;20049;-19
2022/08/06 03:30:38;;;;;;;0.45;0.10;;;23.30;61.70;;;;;;5015421;28;20050;-19
2022/08/06 03:33:08;;;;;;;2.25;0.10;;;23.30;61.90;;;;;;5015182;28;20049;-19
2022/08/06 03:35:34;;;;;;;0.20;0.00;;;23.30;62.10;;;;;;5014887;28;20082;-19
2022/08/06 03:38:00;;;;;;;0.45;0.10;;;23.30;62.40;;;;;;4984320;28;20495;-20
2022/08/06 03:40:25;;;;;;;1.75;0.08;;;23.30;62.40;;;;;;4999043;28;20035;-23
2022/08/06 03:42:51;;;;;;;0.25;0.08;;;23.30;62.60;;;;;;5016924;28;20104;-19
2022/08/06 03:45:16;;;;;;;0.35;0.20;;;23.30;63.60;;;;;;4982471;28;20058;-20
2022/08/06 03:47:46;;;;;;;0.55;0.10;;;23.30;62.60;;;;;;4987143;28;20038;-21
2022/08/06 03:50:16;;;;;;;0.05;0.05;;;23.40;62.70;;;;;;4984659;28;20042;-19
2022/08/06 03:52:46;;;;;;;0.85;0.00;;;23.40;62.70;;;;;;5001337;28;20031;-20
2022/08/06 03:55:15;;;;;;;0.68;0.20;;;23.40;62.50;;;;;;4984590;28;20042;-19
2022/08/06 03:57:42;;;;;;;1.15;0.20;;;23.40;62.50;;;;;;5014824;28;20050;-20
2022/08/06 04:00:08;;;;;;;0.10;0.00;;;23.40;62.60;;;;;;4984965;28;20104;-19
2022/08/06 04:02:37;;;;;;;0.10;0.10;;;23.40;62.50;;;;;;4983364;28;20045;-20
2022/08/06 04:05:03;;;;;;;0.10;0.10;;;23.40;62.40;;;;;;4983076;28;20035;-22
2022/08/06 04:07:29;;;;;;;0.10;0.10;;;23.40;62.50;;;;;;5015476;28;20381;-20
2022/08/06 04:09:55;;;;;;;0.05;0.05;;;23.40;62.50;;;;;;5018213;28;20034;-21
2022/08/06 04:12:20;;;;;;;0.10;0.10;;;23.40;62.60;;;;;;5020055;28;20038;-21
2022/08/06 04:14:46;;;;;;;1.55;0.08;;;23.40;62.50;;;;;;5019628;28;20058;-19
2022/08/06 04:17:11;;;;;;;0.10;0.00;;;23.40;62.40;;;;;;4988819;28;20031;-20
2022/08/06 04:19:37;;;;;;;0.20;0.10;;;23.40;62.50;;;;;;5021274;28;20402;-19
2022/08/06 04:22:03;;;;;;;0.50;0.10;;;23.40;62.40;;;;;;4988504;28;20026;-20
2022/08/06 04:24:28;;;;;;;0.03;0.03;;;23.40;62.30;;;;;;4987101;28;20134;-21
2022/08/06 04:26:54;;;;;;;0.70;0.10;;;23.40;62.30;;;;;;4988044;28;20060;-20
2022/08/06 04:29:20;;;;;;;2.05;0.10;;;23.40;62.30;;;;;;5017942;28;20049;-21
2022/08/06 04:31:47;;;;;;;1.45;0.10;;;23.40;62.40;;;;;;5021655;28;20034;-20
2022/08/06 04:34:15;;;;;;;0.08;0.00;;;23.40;62.30;;;;;;5002771;28;20113;-20
2022/08/06 04:36:41;;;;;;;0.10;0.10;;;23.40;63.30;;;;;;5001149;28;20046;-20
2022/08/06 04:39:07;;;;;;;0.10;0.00;;;23.40;62.30;;;;;;5019861;28;20030;-19
2022/08/06 04:41:32;;;;;;;0.45;0.20;;;23.40;62.30;;;;;;5019772;28;20097;-19
2022/08/06 04:43:58;;;;;;;0.68;0.20;;;23.40;62.20;;;;;;4988557;28;20054;-20
2022/08/06 04:46:23;;;;;;;0.52;0.10;;;23.30;62.30;;;;;;4989633;28;20503;-19
2022/08/06 04:48:49;;;;;;;0.08;0.00;;;23.30;62.20;;;;;;5021851;28;20876;-20
2022/08/06 04:51:15;;;;;;;0.10;0.10;;;23.30;62.30;;;;;;4985557;28;20037;-19
2022/08/06 04:53:41;;;;;;;0.10;0.10;;;23.30;62.30;;;;;;4985051;28;20043;-22
2022/08/06 04:56:07;;;;;;;0.10;0.10;;;23.30;62.10;;;;;;4990241;28;20166;-19
2022/08/06 04:58:33;;;;;;;0.10;0.10;;;23.30;62.10;;;;;;4989461;28;20109;-19
2022/08/06 05:00:58;;;;;;;0.10;0.10;;;23.30;62.10;;;;;;4989179;28;20068;-20
2022/08/06 05:03:24;;;;;;;0.10;0.10;;;23.30;63.00;;;;;;4986890;28;20177;-21
2022/08/06 05:06:10;;;;;;;0.32;0.20;;;23.30;62.10;;;;;;4988536;28;20038;-21
2022/08/06 05:08:37;;;;;;;1.55;0.00;;;23.30;62.20;;;;;;4986800;28;20046;-26
2022/08/06 05:11:25;;;;;;;0.25;0.10;;;23.30;62.10;;;;;;5018317;28;20053;-19
2022/08/06 05:13:54;;;;;;;0.10;0.10;;;23.30;62.20;;;;;;4983879;28;20077;-21
2022/08/06 05:16:19;;;;;;;2.03;0.10;;;23.30;62.10;;;;;;4989091;28;20050;-19
2022/08/06 05:19:00;;;;;;;0.20;0.10;;;23.30;62.10;;;;;;4986088;28;20038;-20
2022/08/06 05:21:29;;;;;;;0.13;0.10;;;23.30;61.90;;;;;;4969335;28;20122;-22
2022/08/06 05:23:55;;;;;;;0.10;0.10;;;23.30;62.00;;;;;;4985547;28;20523;-20
2022/08/06 05:26:21;;;;;;;0.40;0.10;;;23.30;61.90;;;;;;4988465;28;20069;-20
2022/08/06 05:28:46;;;;;;;0.10;0.00;;;23.40;61.90;;;;;;4988221;28;20066;-21
2022/08/06 05:31:12;;;;;;;0.93;0.10;;;23.30;61.90;;;;;;4987215;28;20089;-20
2022/08/06 05:33:38;;;;;;;0.10;0.10;;;23.30;61.90;;;;;;4985923;28;20109;-19
2022/08/06 05:36:09;;;;;;;0.55;0.10;;;23.30;61.80;;;;;;4984848;28;20053;-19
2022/08/06 05:38:36;;;;;;;0.90;0.10;;;23.30;61.70;;;;;;4987904;28;20057;-20
2022/08/06 05:41:02;;;;;;;0.03;0.03;;;23.30;61.80;;;;;;4983030;28;20062;-19
2022/08/06 05:43:28;;;;;;;0.20;0.10;;;23.30;61.90;;;;;;4984047;28;20503;-19
2022/08/06 05:45:59;;;;;;;0.08;0.08;;;23.30;61.80;;;;;;4988594;28;20050;-19
2022/08/06 05:48:24;;;;;;;0.13;0.00;;;23.20;61.80;;;;;;4986529;28;20117;-21
2022/08/06 05:50:53;;;;;;;0.08;0.08;;;23.30;61.70;;;;;;4984988;28;20133;-20
2022/08/06 05:53:24;;;;;;;0.10;0.10;;;23.30;61.70;;;;;;4994941;28;20041;-21
2022/08/06 05:55:57;;;;;;;0.22;0.20;;;23.20;61.70;;;;;;5017136;28;20158;-20
2022/08/06 05:58:39;;;;;;;0.10;0.10;;;23.20;61.90;;;;;;5018206;28;20042;-21
2022/08/06 06:01:07;;;;;;;0.10;0.10;;;23.20;61.70;;;;;;4970384;28;20062;-20
2022/08/06 06:03:33;;;;;;;0.10;0.10;;;23.20;61.60;;;;;;4983946;28;20041;-20
2022/08/06 06:06:00;;;;;;;0.10;0.10;;;23.30;61.70;;;;;;4986606;28;20050;-19
2022/08/06 06:08:26;;;;;;;0.00;0.00;;;23.30;61.70;;;;;;4985454;28;20046;-19
2022/08/06 06:10:51;;;;;;;0.10;0.00;;;23.20;61.50;;;;;;5018354;28;20061;-20
2022/08/06 06:13:17;;;;;;;0.10;0.10;;;23.20;61.50;;;;;;5002133;28;20101;-23
2022/08/06 06:15:48;;;;;;;0.55;0.05;;;23.30;61.60;;;;;;4988835;28;20548;-24
2022/08/06 06:18:41;;;;;;;0.38;0.10;;;23.20;61.50;;;;;;5015498;28;20058;-20
2022/08/06 06:21:16;;;;;;;0.10;0.00;;;23.20;61.50;;;;;;4967717;28;20050;-20
2022/08/06 06:23:49;;;;;;;0.57;0.20;;;23.20;60.60;;;;;;4983554;28;20053;-20
2022/08/06 06:26:33;;;;;;;1.40;0.70;;;22.90;58.30;;;;;;4985077;28;20403;-21
2022/08/06 06:29:19;;;;;;;1.00;0.43;;;22.30;57.90;;;;;;4979995;28;20050;-19
2022/08/06 06:31:54;;;;;;;2.30;0.82;;;22.10;57.20;;;;;;4984816;28;20043;-23
2022/08/06 06:34:48;;;;;;;2.05;0.57;;;21.90;57.60;;;;;;5015479;28;20049;-19
2022/08/06 06:37:28;;;;;;;0.93;0.40;;;21.70;57.50;;;;;;4948839;28;20047;-20
2022/08/06 06:40:38;;;;;;;0.77;0.30;;;21.60;58.20;;;;;;4960082;28;20436;-21
2022/08/06 06:43:17;;;;;;;1.42;0.80;;;21.50;58.60;;;;;;4920752;29;20050;-19
2022/08/06 06:46:16;;;;;;;1.65;0.40;;;21.30;59.00;;;;;;4910441;29;20055;-20
2022/08/06 06:48:50;;;;;;;1.52;0.55;;;21.30;59.10;;;;;;4922018;29;20608;-19
2022/08/06 06:51:31;;;;;;;2.88;0.65;;;21.20;59.70;;;;;;4909095;29;20040;-21
2022/08/06 06:53:57;;;;;;;1.15;0.50;;;21.10;60.20;;;;;;4891889;29;20047;-19
2022/08/06 06:56:26;;;;;;;0.98;0.52;;;21.00;60.40;;;;;;4923272;29;20152;-19
2022/08/06 06:58:57;;;;;;;1.20;0.30;;;21.00;60.70;;;;;;4925594;29;20052;-21
2022/08/06 07:01:23;;;;;;;1.33;0.52;;;20.90;60.70;;;;;;4925588;29;20051;-20
2022/08/06 07:03:49;;;;;;;1.67;0.50;;;20.90;60.70;;;;;;4902786;29;20067;-20
2022/08/06 07:06:14;;;;;;;1.65;0.60;;;21.00;60.70;;;;;;4891620;29;20047;-20
2022/08/06 07:08:45;;;;;;;0.80;0.40;;;21.00;60.30;;;;;;4906123;29;20087;-20
2022/08/06 07:11:20;;;;;;;1.27;0.38;;;20.90;60.20;;;;;;4902663;29;20131;-20
2022/08/06 07:13:46;;;;;;;0.50;0.30;;;20.80;61.30;;;;;;4910008;29;20126;-24
2022/08/06 07:16:13;;;;;;;0.50;0.32;;;20.80;59.80;;;;;;4929867;28;20056;-19
2022/08/06 07:18:39;;;;;;;0.75;0.30;;;20.60;60.00;;;;;;4953271;28;20738;-22
2022/08/06 07:21:04;;;;;;;1.23;0.45;;;20.70;60.00;;;;;;4983445;28;20145;-19
2022/08/06 07:23:30;;;;;;;0.73;0.22;;;20.60;59.90;;;;;;5015102;28;20038;-22
2022/08/06 07:25:56;;;;;;;2.10;0.80;;;20.70;59.30;;;;;;5015925;28;20097;-20
2022/08/06 07:28:27;;;;;;;1.00;0.30;;;20.80;59.00;;;;;;5018002;28;20081;-19
2022/08/06 07:30:53;;;;;;;0.55;0.20;;;20.80;58.60;;;;;;4983881;28;20058;-21
2022/08/06 07:33:19;;;;;;;0.70;0.22;;;20.90;58.00;;;;;;4990466;28;20050;-20
2022/08/06 07:35:45;;;;;;;0.70;0.40;;;20.90;57.40;;;;;;4987892;28;20061;-19
2022/08/06 07:38:12;;;;;;;2.42;0.30;;;20.80;57.20;;;;;;4988548;28;20054;-19
2022/08/06 07:40:43;;;;;;;1.33;0.40;;;20.90;56.50;;;;;;4982706;28;20035;-20
2022/08/06 07:43:21;;;;;;;0.82;0.20;;;20.80;56.30;;;;;;5002284;28;20052;-22
2022/08/06 07:45:47;;;;;;;0.40;0.20;;;20.80;56.80;;;;;;5003158;28;20049;-20
2022/08/06 07:48:13;;;;;;;0.93;0.50;;;21.00;56.50;;;;;;4987799;28;20054;-27
2022/08/06 07:50:44;;;;;;;0.20;0.20;;;21.10;56.20;;;;;;4988353;28;20555;-19
2022/08/06 07:53:10;;;;;;;0.30;0.20;;;21.10;56.10;;;;;;4988374;28;20038;-19
2022/08/06 07:55:36;;;;;;;0.50;0.30;;;21.10;55.30;;;;;;4988642;28;20543;-20
2022/08/06 07:58:01;;;;;;;0.43;0.17;;;21.00;55.00;;;;;;4989364;28;20045;-22
2022/08/06 08:00:27;;;;;;;0.90;0.30;;;21.10;54.60;;;;;;4996458;28;20153;-20
2022/08/06 08:08:21;;;;;;;1.75;0.70;;;21.10;54.10;;;;;;4985425;28;19925;-19
2022/08/06 08:10:46;;;;;;;0.43;0.22;;;21.10;54.40;;;;;;4983430;28;20050;-20
2022/08/06 08:13:12;;;;;;;1.92;0.32;;;21.10;54.00;;;;;;4983649;28;20089;-19
2022/08/06 08:15:38;;;;;;;0.90;0.30;;;21.10;54.10;;;;;;4998207;28;20065;-20
2022/08/06 08:18:04;;;;;;;0.50;0.20;;;21.20;53.80;;;;;;4984372;28;20050;-22
2022/08/06 08:20:30;;;;;;;0.35;0.20;;;21.20;53.70;;;;;;4985584;28;20051;-21
2022/08/06 08:22:55;;;;;;;0.40;0.20;;;21.20;53.40;;;;;;4984207;28;20057;-19
2022/08/06 08:25:21;;;;;;;0.77;0.10;;;21.10;53.20;;;;;;5001622;28;20047;-19
2022/08/06 08:27:47;;;;;;;0.50;0.10;;;21.20;53.10;;;;;;4984443;28;20073;-22
2022/08/06 08:30:12;;;;;;;0.30;0.30;;;21.20;52.70;;;;;;4985134;28;20039;-19
2022/08/06 08:32:38;;;;;;;0.32;0.20;;;21.10;52.70;;;;;;4986314;28;20508;-22
2022/08/06 08:35:04;;;;;;;0.30;0.22;;;21.10;52.60;;;;;;4985847;28;20393;-20
2022/08/06 08:37:29;;;;;;;0.35;0.25;;;21.20;52.70;;;;;;4986036;28;20046;-20
2022/08/06 08:39:55;;;;;;;0.20;0.10;;;21.20;52.40;;;;;;4983875;28;20522;-20
2022/08/06 08:42:35;;;;;;;1.35;0.30;;;21.20;52.40;;;;;;4986481;28;20057;-19
2022/08/06 08:45:01;;;;;;;0.32;0.22;;;21.30;52.40;;;;;;5016503;28;20181;-26
2022/08/06 08:47:27;;;;;;;0.82;0.22;;;21.20;52.30;;;;;;4984601;28;20100;-21
2022/08/06 08:49:55;;;;;;;0.30;0.30;;;21.30;52.40;;;;;;4977117;28;20582;-20
2022/08/06 08:52:30;;;;;;;0.43;0.10;;;21.40;52.30;;;;;;4968828;28;20049;-19
2022/08/06 08:54:58;;;;;;;0.25;0.10;;;21.40;52.10;;;;;;5010423;28;20129;-19
2022/08/06 08:57:26;;;;;;;0.43;0.20;;;21.40;52.20;;;;;;4979196;28;20062;-19
2022/08/06 08:59:51;;;;;;;1.23;0.30;;;21.40;52.00;;;;;;4977619;28;20049;-20
2022/08/06 09:02:17;;;;;;;0.10;0.10;;;21.40;51.90;;;;;;4979353;28;20050;-20
2022/08/06 09:04:42;;;;;;;0.93;0.30;;;21.40;51.50;;;;;;4981002;28;20452;-20
2022/08/06 09:07:08;;;;;;;0.60;0.40;;;21.50;51.30;;;;;;4992940;28;20064;-21
2022/08/06 09:09:34;;;;;;;0.95;0.50;;;21.40;50.80;;;;;;4981527;28;20129;-19
2022/08/06 09:12:00;;;;;;;0.60;0.20;;;21.50;51.70;;;;;;4978071;28;20418;-21
2022/08/06 09:14:26;;;;;;;0.75;0.10;;;21.70;50.80;;;;;;4978130;28;20058;-20
2022/08/06 09:16:51;;;;;;;3.90;0.30;;;21.80;51.10;;;;;;4979175;28;20058;-19
2022/08/06 09:19:17;;;;;;;0.35;0.20;;;21.80;51.80;;;;;;4979864;28;20066;-20
2022/08/06 09:21:43;;;;;;;2.97;0.22;;;21.90;53.00;;;;;;4976010;28;20570;-21
2022/08/06 09:24:09;;;;;;;2.10;0.43;;;21.90;53.30;;;;;;4656268;28;10000313;-20
2022/08/06 09:26:34;;;;;;;1.27;0.50;;;21.90;52.40;;;;;;4975158;28;20113;-19
2022/08/06 09:29:00;;;;;;;0.60;0.35;;;22.00;51.80;;;;;;4974295;28;20594;-21
2022/08/06 09:31:26;;;;;;;0.85;0.20;;;22.00;52.00;;;;;;4973943;28;20040;-19
2022/08/06 09:34:00;;;;;;;0.55;0.20;;;22.00;52.50;;;;;;4972330;28;20420;-19
2022/08/06 09:36:26;;;;;;;0.80;0.40;;;22.00;51.70;;;;;;4619327;28;10000506;-19
2022/08/06 09:38:53;;;;;;;1.25;0.30;;;22.10;51.20;;;;;;4624025;28;9999944;-21
2022/08/06 09:41:21;;;;;;;0.20;0.15;;;22.10;50.10;;;;;;4970477;28;20073;-23
2022/08/06 09:43:50;;;;;;;0.38;0.17;;;22.10;50.80;;;;;;4970274;28;20159;-21
2022/08/06 09:46:17;;;;;;;0.28;0.17;;;22.20;50.40;;;;;;4980442;28;20050;-20
2022/08/06 09:48:58;;;;;;;0.28;0.10;;;22.20;50.30;;;;;;4979917;28;20503;-24
2022/08/06 09:51:24;;;;;;;0.30;0.20;;;22.20;50.30;;;;;;4962634;28;20046;-20
2022/08/06 09:53:54;;;;;;;0.40;0.20;;;22.30;50.30;;;;;;4974518;28;21204;-21
2022/08/06 09:56:20;;;;;;;0.52;0.20;;;22.40;50.50;;;;;;4974543;28;20122;-20
2022/08/06 09:58:46;;;;;;;0.40;0.40;;;22.40;50.50;;;;;;5006456;28;20438;-20
2022/08/06 10:01:17;;;;;;;0.10;0.10;;;22.30;50.20;;;;;;5005122;28;20097;-22
2022/08/06 10:03:43;;;;;;;0.45;0.30;;;22.30;50.80;;;;;;4972833;28;20058;-21
2022/08/06 10:06:14;;;;;;;0.10;0.10;;;22.40;50.50;;;;;;4973125;28;20042;-21
2022/08/06 10:08:39;;;;;;;0.20;0.20;;;22.40;50.00;;;;;;4972975;28;21414;-22
2022/08/06 10:11:05;;;;;;;1.20;0.50;;;22.40;50.00;;;;;;4973620;28;20537;-23
2022/08/06 10:13:31;;;;;;;0.40;0.20;;;22.40;50.20;;;;;;4976806;28;20046;-21
2022/08/06 10:16:13;;;;;;;0.20;0.20;;;22.40;50.70;;;;;;4976176;28;20042;-21
2022/08/06 10:18:49;;;;;;;0.10;0.10;;;22.50;50.40;;;;;;4980954;28;20125;-23
2022/08/06 10:21:17;;;;;;;0.20;0.20;;;22.50;50.80;;;;;;4981781;28;20038;-21
2022/08/06 10:23:45;;;;;;;0.30;0.20;;;22.50;50.40;;;;;;4961702;28;20061;-19
2022/08/06 10:26:11;;;;;;;1.08;0.38;;;22.50;50.70;;;;;;4975285;28;20447;-20
2022/08/06 10:28:38;;;;;;;0.10;0.10;;;22.60;50.70;;;;;;4979032;28;20043;-20
2022/08/06 10:31:05;;;;;;;0.40;0.30;;;22.50;50.40;;;;;;4973389;28;20050;-19
2022/08/06 10:34:01;;;;;;;1.17;0.10;;;22.50;51.00;;;;;;4975603;28;20563;-34
2022/08/06 10:36:54;;;;;;;0.22;0.20;;;22.60;51.10;;;;;;4952134;28;20050;-19
2022/08/06 10:39:23;;;;;;;0.50;0.20;;;22.60;51.10;;;;;;4996396;28;20189;-19
2022/08/06 10:41:49;;;;;;;0.28;0.10;;;22.60;50.90;;;;;;4957827;28;20225;-20
2022/08/06 10:44:15;;;;;;;0.15;0.10;;;22.60;50.90;;;;;;4966426;28;20357;-19
2022/08/06 10:46:40;;;;;;;0.57;0.22;;;22.70;50.40;;;;;;4988535;28;20077;-19
2022/08/06 10:49:06;;;;;;;0.20;0.20;;;22.60;51.50;;;;;;4961398;28;20483;-19
2022/08/06 10:51:31;;;;;;;0.52;0.30;;;22.70;50.70;;;;;;5003777;28;20043;-19
2022/08/06 10:53:57;;;;;;;0.10;0.10;;;22.70;50.70;;;;;;4990494;28;20035;-19
2022/08/06 10:56:24;;;;;;;0.35;0.20;;;22.70;50.60;;;;;;4974869;28;20050;-19
2022/08/06 10:58:50;;;;;;;0.10;0.10;;;22.70;50.80;;;;;;4980677;28;20326;-19
2022/08/06 11:01:54;;;;;;;0.52;0.10;;;22.70;51.30;;;;;;4976048;28;20050;-19
2022/08/06 11:04:47;;;;;;;1.10;0.30;;;22.70;51.70;;;;;;4980346;28;20049;-19
2022/08/06 11:07:33;;;;;;;0.52;0.50;;;22.70;52.20;;;;;;4973263;28;20058;-23
2022/08/06 11:10:21;;;;;;;0.55;0.50;;;22.70;52.30;;;;;;4978732;28;20569;-19
2022/08/06 11:12:50;;;;;;;0.50;0.30;;;22.80;52.40;;;;;;4983397;28;20049;-20
2022/08/06 11:15:16;;;;;;;0.40;0.40;;;22.80;52.50;;;;;;4980363;28;20049;-19
2022/08/06 11:17:53;;;;;;;0.30;0.30;;;22.80;52.80;;;;;;4637508;28;10001115;-19
2022/08/06 11:20:37;;;;;;;0.70;0.32;;;22.80;52.10;;;;;;5006162;28;20054;-20
2022/08/06 11:23:05;;;;;;;1.48;0.63;;;22.80;52.40;;;;;;4979282;28;20113;-20
2022/08/06 11:25:39;;;;;;;0.70;0.30;;;22.80;52.60;;;;;;5009417;28;20454;-19
2022/08/06 11:28:07;;;;;;;0.30;0.30;;;22.80;52.90;;;;;;4979027;28;20072;-20
2022/08/06 11:30:48;;;;;;;0.40;0.30;;;22.90;52.50;;;;;;4973889;28;20053;-23
2022/08/06 11:33:17;;;;;;;0.52;0.40;;;22.90;52.60;;;;;;4972848;28;20439;-21
2022/08/06 11:35:45;;;;;;;0.30;0.30;;;22.90;52.40;;;;;;4971482;28;20058;-24
2022/08/06 11:38:12;;;;;;;0.38;0.38;;;22.90;53.20;;;;;;4973133;28;20047;-19
2022/08/06 11:41:01;;;;;;;0.28;0.20;;;22.90;53.10;;;;;;4974562;28;20066;-19
2022/08/06 11:43:43;;;;;;;0.28;0.28;;;22.90;52.60;;;;;;4972603;28;20049;-19
2022/08/06 11:46:25;;;;;;;0.80;0.50;;;22.90;53.10;;;;;;4972210;28;20042;-19
2022/08/06 11:48:59;;;;;;;0.22;0.22;;;22.90;52.90;;;;;;4976006;28;20054;-20
2022/08/06 11:51:44;;;;;;;0.40;0.22;;;22.90;53.00;;;;;;4974723;28;20081;-19
2022/08/06 11:54:17;;;;;;;0.32;0.28;;;22.90;53.10;;;;;;4976826;28;20578;-20
2022/08/06 11:57:06;;;;;;;0.23;0.20;;;22.90;52.90;;;;;;4976342;28;20347;-19
2022/08/06 11:59:53;;;;;;;1.17;0.20;;;22.90;53.40;;;;;;4970167;28;20089;-20
2022/08/06 12:02:46;;;;;;;0.20;0.20;;;22.90;53.00;;;;;;4972308;28;20042;-19
2022/08/06 12:05:14;;;;;;;0.35;0.32;;;22.90;53.10;;;;;;4975002;28;20043;-19
2022/08/06 12:07:49;;;;;;;1.38;0.30;;;23.00;52.80;;;;;;4972363;28;20055;-20
2022/08/06 12:10:14;;;;;;;0.20;0.20;;;23.00;52.90;;;;;;4982793;28;20511;-19
2022/08/06 12:12:50;;;;;;;0.30;0.30;;;23.00;52.40;;;;;;4983254;28;20058;-19
2022/08/06 12:15:16;;;;;;;0.30;0.10;;;23.00;52.60;;;;;;5013239;28;20480;-19
2022/08/06 12:18:03;;;;;;;0.25;0.20;;;23.00;51.70;;;;;;4984598;28;20526;-20
2022/08/06 12:20:32;;;;;;;1.45;0.20;;;23.00;53.10;;;;;;4981619;28;20135;-20
2022/08/06 12:23:08;;;;;;;0.32;0.20;;;23.00;53.10;;;;;;4982457;28;20535;-22
2022/08/06 12:25:38;;;;;;;0.68;0.30;;;23.00;52.80;;;;;;4984203;28;20039;-20
2022/08/06 12:28:04;;;;;;;1.00;0.20;;;22.90;53.00;;;;;;4986193;28;20038;-19
2022/08/06 12:30:49;;;;;;;1.75;0.28;;;23.00;53.10;;;;;;4989431;28;20053;-19
2022/08/06 12:33:15;;;;;;;0.28;0.20;;;23.00;53.20;;;;;;4987219;28;20522;-20
2022/08/06 12:35:58;;;;;;;0.35;0.10;;;23.00;53.20;;;;;;4989000;28;20081;-19
2022/08/06 12:38:26;;;;;;;0.10;0.10;;;23.00;53.00;;;;;;4987827;28;20038;-19
2022/08/06 12:40:55;;;;;;;1.85;0.10;;;23.00;53.50;;;;;;4989134;28;20045;-20
2022/08/06 12:43:20;;;;;;;1.00;0.43;;;23.00;53.30;;;;;;4988334;28;20042;-21
2022/08/06 12:45:46;;;;;;;2.33;0.20;;;23.00;53.50;;;;;;4989273;28;20043;-20
2022/08/06 12:48:12;;;;;;;0.93;0.25;;;23.00;53.50;;;;;;4986880;28;20074;-20
2022/08/06 12:50:42;;;;;;;0.43;0.20;;;23.00;53.60;;;;;;4988963;28;20046;-20
2022/08/06 12:53:09;;;;;;;0.60;0.20;;;23.00;53.50;;;;;;4988434;28;20069;-22
2022/08/06 12:55:45;;;;;;;2.35;0.10;;;23.00;53.60;;;;;;4989414;28;20128;-20
2022/08/06 12:58:11;;;;;;;0.55;0.28;;;23.00;53.60;;;;;;4988792;28;20455;-19
2022/08/06 13:00:37;;;;;;;0.10;0.10;;;23.00;53.80;;;;;;4969721;28;20053;-19
2022/08/06 13:03:03;;;;;;;0.32;0.28;;;23.00;53.70;;;;;;4984571;28;20414;-19